EuroAirport Basel-Mulhouse-Freiburg Airport

METAR LFGA TAF EDTL
1 °C
°C
-
°C
34m
Età
20:04:16
LT
19:04
UTC
0 ft

1.000

2.000

3.000

4.000

5.000

VFR
<?= Yii::t('app', 'Wind direction') ?> <?= Yii::t('app', 'of'); ?>
310°
07:50
Alba
70%
Umidità
Taglio del vento
Chiuso/Neve
Raggio visivo RWY
Condizione della RWY
Visibilità verticale
Visibilità minima
CAVOK
Tendenza
Correzione
Rapporto speciale
1037 hPa
QNH
METAR LFGA 071830Z AUTO 31003KT 290V360 CAVOK 01/M04 Q1037
Cielo sereno
2 kt
2 kt
20:00
VFR
6 kt
21:00
VFR
6 kt
22:00
VFR
6 kt
23:00
VFR
6 kt
00:00
VFR
6 kt
10 km+
Vista
No
Base nuvolosa
3 kt
Vento
metar-taf.com/LFSB

Metar-Taf.com

Decodificatore visivo

Noi e le terze parti seguiamo il tuo comportamento su internet con i cookie. Se continui, riteniamo che tu sia d'accordo con la nostra Politica sui cookie.